Toston, Montana
Current Conditions -  °F | °C
As of 4:56 PM on Friday 24 Oct 2014 (Local Time) from KBZN Reporting Station
Light Rain Light Rain  
Wind Chill: 49°   Ceiling: 8000
Heat Index: 49°   Visibility: 10mi
Dew Point: 42°   Wind: 3mph
Humidity: 77%   Direction: 320°NW
Pressure: 30.12"   Gusts: NA
Location:  46.18°N, 111.44°W
Report Text: KBZN 242256Z 32003KT 10SM -RA SCT065 BKN080 OVC090 09/06 A3012 RMK AO2 RAE2157B56 SLP187 P0000 T00940056
Loading
Personal Weather Stations






























Interactive Weather Map
Tropical Storm Tracking
New forecast layout! Learn more

10-Day Weather Forecast

Advertisements
Track Severe Weather on mobile